createdAt,value
2022-12-06T00:00:45.402Z,101182.31
2022-12-06T00:03:11.960Z,101183.28
2022-12-06T00:05:41.852Z,101188.63
2022-12-06T00:08:12.412Z,101188.63
2022-12-06T00:10:38.939Z,101185.97
2022-12-06T00:13:05.679Z,101187.75
2022-12-06T00:15:35.870Z,101184.97
2022-12-06T00:18:02.610Z,101183.28
2022-12-06T00:20:28.929Z,101186.66
2022-12-06T00:22:55.502Z,101187.53
2022-12-06T00:25:21.845Z,101194.44
2022-12-06T00:27:48.154Z,101177.63
2022-12-06T00:30:14.668Z,101189.84
2022-12-06T00:32:40.997Z,101182.63
2022-12-06T00:35:07.587Z,101184.31
2022-12-06T00:37:33.934Z,101188.69
2022-12-06T00:40:00.575Z,101186.88
2022-12-06T00:42:27.227Z,101177.91
2022-12-06T00:44:53.543Z,101182.28
2022-12-06T00:47:19.858Z,101176.97
2022-12-06T00:49:46.254Z,101183.13
2022-12-06T00:52:12.717Z,101183.13
2022-12-06T00:54:39.091Z,101181.31
2022-12-06T00:57:05.618Z,101177.81
2022-12-06T00:59:31.995Z,101183.13
2022-12-06T01:01:58.429Z,101187.47
2022-12-06T01:04:24.735Z,101186.63
2022-12-06T01:06:51.091Z,101183.88
2022-12-06T01:09:17.406Z,101188.34
2022-12-06T01:11:43.753Z,101185.56
2022-12-06T01:14:10.103Z,101188.13
2022-12-06T01:16:36.462Z,101181.97
2022-12-06T01:19:05.390Z,101182.69
2022-12-06T01:21:31.824Z,101172.91
2022-12-06T01:23:58.213Z,101182.69
2022-12-06T01:26:27.804Z,101184.25
2022-12-06T01:28:55.030Z,101172.78
2022-12-06T01:31:21.685Z,101172.78
2022-12-06T01:33:48.196Z,101174.50
2022-12-06T01:36:19.821Z,101169.19
2022-12-06T01:38:57.783Z,101173.53
2022-12-06T01:41:25.870Z,101175.22
2022-12-06T01:43:52.910Z,101178.84
2022-12-06T01:46:33.510Z,101169.88
2022-12-06T01:49:11.801Z,101175.09
2022-12-06T01:51:39.813Z,101174.28
2022-12-06T01:54:10.629Z,101173.28
2022-12-06T01:56:38.798Z,101173.28
2022-12-06T01:59:06.358Z,101174.97
2022-12-06T02:01:34.410Z,101170.63
2022-12-06T02:04:02.227Z,101172.31
2022-12-06T02:06:30.771Z,101168.72
2022-12-06T02:08:59.815Z,101168.72
2022-12-06T02:11:29.520Z,101166.06
2022-12-06T02:14:01.094Z,101165.91
2022-12-06T02:16:45.951Z,101167.75
2022-12-06T02:19:36.711Z,101169.31
2022-12-06T02:22:20.412Z,101167.41
2022-12-06T02:24:49.662Z,101166.44
2022-12-06T02:27:48.135Z,101159.31
2022-12-06T02:30:39.563Z,101154.94
2022-12-06T02:33:19.091Z,101148.69
2022-12-06T02:36:05.764Z,101142.47
2022-12-06T02:38:51.004Z,101145.16
2022-12-06T02:41:42.185Z,101144.31
2022-12-06T02:44:23.153Z,101142.47
2022-12-06T02:46:51.896Z,101141.63
2022-12-06T02:49:18.653Z,101136.44
2022-12-06T02:51:47.479Z,101134.63
2022-12-06T02:54:14.533Z,101134.63
2022-12-06T02:56:40.848Z,101125.91
2022-12-06T02:59:07.165Z,101130.25
2022-12-06T03:01:37.726Z,101127.59
2022-12-06T03:04:31.521Z,101128.56
2022-12-06T03:07:13.249Z,101123.16
2022-12-06T03:10:18.272Z,101130.25
2022-12-06T03:13:18.738Z,101130.25
2022-12-06T03:16:00.000Z,101128.56
2022-12-06T03:18:35.078Z,101131.22
2022-12-06T03:21:11.352Z,101126.88
2022-12-06T03:23:41.935Z,101131.22
2022-12-06T03:26:13.199Z,101131.22
2022-12-06T03:28:41.249Z,101135.81
2022-12-06T03:31:11.503Z,101132.22
2022-12-06T03:33:43.977Z,101136.56
2022-12-06T03:36:14.871Z,101132.91
2022-12-06T03:38:48.792Z,101133.78
2022-12-06T03:41:18.369Z,101136.31
2022-12-06T03:43:44.989Z,101129.31
2022-12-06T03:46:15.930Z,101130.91
2022-12-06T03:48:54.522Z,101128.09
2022-12-06T03:51:26.393Z,101129.81
2022-12-06T03:53:56.376Z,101126.19
2022-12-06T03:56:23.501Z,101127.03
2022-12-06T03:58:50.404Z,101126.09
2022-12-06T04:01:17.309Z,101126.94
2022-12-06T04:03:44.016Z,101128.63
2022-12-06T04:06:11.690Z,101139.25
2022-12-06T04:08:38.345Z,101137.34
2022-12-06T04:11:05.297Z,101132.75
2022-12-06T04:13:32.246Z,101130.94
2022-12-06T04:16:00.529Z,101134.34
2022-12-06T04:18:27.587Z,101125.38
2022-12-06T04:21:15.771Z,101129.63
2022-12-06T04:23:44.041Z,101123.34
2022-12-06T04:26:14.269Z,101124.19
2022-12-06T04:28:59.783Z,101117.06
2022-12-06T04:31:45.122Z,101115.22
2022-12-06T04:34:30.390Z,101115.97
2022-12-06T04:37:16.201Z,101114.16
2022-12-06T04:39:42.724Z,101110.53
2022-12-06T04:42:28.370Z,101117.56
2022-12-06T04:44:54.770Z,101110.41
2022-12-06T04:47:21.117Z,101105.94
2022-12-06T04:49:47.899Z,101108.50
2022-12-06T04:52:14.963Z,101112.00
2022-12-06T04:54:41.671Z,101103.91
2022-12-06T04:57:11.297Z,101102.09
2022-12-06T04:59:42.488Z,101110.81
2022-12-06T05:02:13.301Z,101112.50
2022-12-06T05:04:39.915Z,101113.34
2022-12-06T05:07:06.353Z,101100.88
2022-12-06T05:09:32.845Z,101107.91
2022-12-06T05:11:59.282Z,101097.25
2022-12-06T05:14:25.668Z,101103.31
2022-12-06T05:16:52.098Z,101096.19
2022-12-06T05:19:18.572Z,101096.03
2022-12-06T05:21:44.882Z,101099.47
2022-12-06T05:24:11.520Z,101101.19
2022-12-06T05:26:38.169Z,101097.53
2022-12-06T05:29:04.497Z,101101.06
2022-12-06T05:31:30.916Z,101101.91
2022-12-06T05:33:57.333Z,101101.78
2022-12-06T05:36:26.597Z,101099.88
2022-12-06T05:38:53.395Z,101102.38
2022-12-06T05:41:21.129Z,101089.06
2022-12-06T05:43:47.999Z,101095.13
2022-12-06T05:46:14.822Z,101088.84
2022-12-06T05:48:41.212Z,101092.38
2022-12-06T05:51:07.540Z,101086.16
2022-12-06T05:53:34.173Z,101088.84
2022-12-06T05:56:08.999Z,101090.56
2022-12-06T05:58:36.493Z,101087.88
2022-12-06T06:01:03.680Z,101082.56
2022-12-06T06:03:30.157Z,101093.22
2022-12-06T06:05:59.477Z,101084.25
2022-12-06T06:08:26.701Z,101084.38
2022-12-06T06:10:53.354Z,101086.91
2022-12-06T06:13:20.037Z,101085.97
2022-12-06T06:15:47.701Z,101089.56
2022-12-06T06:18:14.064Z,101092.22
2022-12-06T06:20:40.550Z,101093.94
2022-12-06T06:23:07.037Z,101092.97
2022-12-06T06:25:33.378Z,101099.97
2022-12-06T06:27:59.786Z,101099.88
2022-12-06T06:30:26.126Z,101100.72
2022-12-06T06:32:52.433Z,101094.44
2022-12-06T06:35:18.763Z,101087.16
2022-12-06T06:37:45.946Z,101090.56
2022-12-06T06:40:12.416Z,101091.41
2022-12-06T06:42:39.303Z,101093.97
2022-12-06T06:45:06.574Z,101084.16
2022-12-06T06:47:33.302Z,101094.56
2022-12-06T06:49:59.740Z,101092.72
2022-12-06T06:52:26.530Z,101101.47
2022-12-06T06:54:52.828Z,101095.19
2022-12-06T06:57:19.154Z,101092.38
2022-12-06T06:59:46.050Z,101101.09
2022-12-06T07:02:14.352Z,101096.63
2022-12-06T07:04:40.860Z,101100.03
2022-12-06T07:07:07.163Z,101101.72
2022-12-06T07:09:34.694Z,101103.41
2022-12-06T07:12:01.033Z,101101.47
2022-12-06T07:14:27.408Z,101104.00
2022-12-06T07:16:54.045Z,101107.41
2022-12-06T07:19:20.531Z,101105.59
2022-12-06T07:21:46.877Z,101113.34
2022-12-06T07:24:13.209Z,101113.34
2022-12-06T07:26:39.581Z,101112.16
2022-12-06T07:29:06.251Z,101108.50
2022-12-06T07:31:33.704Z,101118.91
2022-12-06T07:34:02.254Z,101116.00
2022-12-06T07:36:30.713Z,101122.81
2022-12-06T07:38:58.376Z,101126.94
2022-12-06T07:41:46.016Z,101121.47
2022-12-06T07:44:33.138Z,101116.72
2022-12-06T07:46:59.900Z,101122.94
2022-12-06T07:49:26.264Z,101132.50
2022-12-06T07:51:54.144Z,101128.84
2022-12-06T07:54:20.940Z,101128.84
2022-12-06T07:56:47.258Z,101122.53
2022-12-06T07:59:13.615Z,101125.09
2022-12-06T08:01:40.306Z,101125.00
2022-12-06T08:04:07.737Z,101122.19
2022-12-06T08:06:34.795Z,101128.34
2022-12-06T08:09:01.288Z,101133.47
2022-12-06T08:11:28.595Z,101131.50
2022-12-06T08:13:55.018Z,101137.47
2022-12-06T08:16:21.418Z,101140.81
2022-12-06T08:18:47.789Z,101146.78
2022-12-06T08:21:14.136Z,101147.53
2022-12-06T08:23:40.481Z,101148.22
2022-12-06T08:26:09.625Z,101148.00
2022-12-06T08:28:38.011Z,101140.69
2022-12-06T08:31:13.610Z,101150.28
2022-12-06T08:33:40.414Z,101146.50
2022-12-06T08:36:08.946Z,101146.41
2022-12-06T08:38:36.768Z,101147.97
2022-12-06T08:41:03.989Z,101139.81
2022-12-06T08:43:31.395Z,101144.06
2022-12-06T08:45:58.175Z,101144.78
2022-12-06T08:48:24.562Z,101142.84
2022-12-06T08:50:50.907Z,101150.63
2022-12-06T08:53:17.211Z,101138.94
2022-12-06T08:55:58.733Z,101149.41
2022-12-06T08:58:28.492Z,101143.09
2022-12-06T09:00:54.810Z,101156.31
2022-12-06T09:03:21.138Z,101145.50
2022-12-06T09:05:47.546Z,101148.88
2022-12-06T09:08:14.469Z,101151.44
2022-12-06T09:10:42.453Z,101149.47
2022-12-06T09:13:09.068Z,101147.53
2022-12-06T09:15:35.486Z,101151.78
2022-12-06T09:18:01.835Z,101155.03
2022-12-06T09:20:28.171Z,101147.75
2022-12-06T09:22:54.465Z,101155.50
2022-12-06T09:25:20.792Z,101156.13
2022-12-06T09:27:47.783Z,101147.84
2022-12-06T09:30:14.652Z,101153.91
2022-12-06T09:32:41.073Z,101153.66
2022-12-06T09:35:12.270Z,101155.22
2022-12-06T09:37:41.478Z,101165.66
2022-12-06T09:40:16.707Z,101158.22
2022-12-06T09:43:02.101Z,101159.69
2022-12-06T09:46:10.423Z,101161.25
2022-12-06T09:49:10.014Z,101162.66
2022-12-06T09:51:54.543Z,101156.47
2022-12-06T09:54:33.747Z,101154.53
2022-12-06T09:57:21.912Z,101152.31
2022-12-06T10:00:06.079Z,101145.88
2022-12-06T10:03:05.860Z,101146.47
2022-12-06T10:06:02.616Z,101149.75
2022-12-06T10:08:39.376Z,101144.84
2022-12-06T10:11:15.773Z,101144.59
2022-12-06T10:13:57.049Z,101140.94
2022-12-06T10:16:53.543Z,101132.91
2022-12-06T10:19:27.355Z,101132.91
2022-12-06T10:22:15.237Z,101129.28
2022-12-06T10:24:46.276Z,101128.19
2022-12-06T10:27:22.626Z,101121.69
2022-12-06T10:29:56.446Z,101116.94
2022-12-06T10:33:05.182Z,101116.41
2022-12-06T10:35:42.403Z,101109.84
2022-12-06T10:38:30.169Z,101110.28
2022-12-06T10:41:14.047Z,101111.69
2022-12-06T10:44:01.597Z,101117.69
2022-12-06T10:47:06.261Z,101114.00
2022-12-06T10:49:40.992Z,101112.06
2022-12-06T10:52:32.015Z,101099.41
2022-12-06T10:55:14.485Z,101111.66
2022-12-06T10:58:12.910Z,101112.50
2022-12-06T11:00:51.564Z,101103.66
2022-12-06T11:03:27.858Z,101107.28
2022-12-06T11:05:59.529Z,101103.78
2022-12-06T11:08:43.949Z,101098.53
2022-12-06T11:11:17.346Z,101099.53
2022-12-06T11:14:03.338Z,101101.38
2022-12-06T11:16:38.331Z,101102.22
2022-12-06T11:19:23.005Z,101097.84
2022-12-06T11:22:04.103Z,101099.81
2022-12-06T11:24:43.213Z,101097.13
2022-12-06T11:27:26.740Z,101099.06
2022-12-06T11:29:53.310Z,101103.56
2022-12-06T11:32:19.864Z,101094.69
2022-12-06T11:34:52.963Z,101099.94
2022-12-06T11:37:22.349Z,101091.03
2022-12-06T11:39:52.927Z,101099.06
2022-12-06T11:42:25.294Z,101083.00
2022-12-06T11:45:07.051Z,101090.19
2022-12-06T11:47:33.678Z,101082.16
2022-12-06T11:50:04.374Z,101080.25
2022-12-06T11:52:45.408Z,101087.00
2022-12-06T11:55:25.179Z,101078.88
2022-12-06T11:58:02.100Z,101074.09
2022-12-06T12:00:31.051Z,101081.00
2022-12-06T12:02:57.773Z,101081.56
2022-12-06T12:05:30.924Z,101085.94
2022-12-06T12:08:04.788Z,101082.44
2022-12-06T12:10:40.621Z,101075.38
2022-12-06T12:13:31.619Z,101075.38
2022-12-06T12:16:03.936Z,101071.97
2022-12-06T12:18:35.289Z,101069.31
2022-12-06T12:21:03.179Z,101072.97
2022-12-06T12:23:37.079Z,101064.66
2022-12-06T12:26:17.149Z,101066.81
2022-12-06T12:29:03.394Z,101068.78
2022-12-06T12:31:29.771Z,101057.84
2022-12-06T12:34:19.229Z,101059.72
2022-12-06T12:36:52.769Z,101061.13
2022-12-06T12:39:26.749Z,101060.44
2022-12-06T12:41:53.303Z,101053.66
2022-12-06T12:44:42.897Z,101057.00
2022-12-06T12:47:19.898Z,101054.19
2022-12-06T12:50:20.186Z,101058.53
2022-12-06T12:52:47.602Z,101054.97
2022-12-06T12:55:27.845Z,101055.75
2022-12-06T12:57:57.679Z,101051.22
2022-12-06T13:00:37.732Z,101059.78
2022-12-06T13:03:28.486Z,101063.81
2022-12-06T13:05:57.428Z,101068.56
2022-12-06T13:08:31.324Z,101073.09
2022-12-06T13:11:01.945Z,101059.56
2022-12-06T13:13:39.476Z,101065.50
2022-12-06T13:16:12.588Z,101065.97
2022-12-06T13:18:44.574Z,101070.88
2022-12-06T13:21:25.525Z,101063.34
2022-12-06T13:24:14.257Z,101059.31
2022-12-06T13:27:12.902Z,101066.91
2022-12-06T13:30:14.736Z,101060.31
2022-12-06T13:33:03.102Z,101059.31
2022-12-06T13:35:47.622Z,101061.88
2022-12-06T13:38:20.033Z,101065.38
2022-12-06T13:40:56.243Z,101063.72
2022-12-06T13:43:35.076Z,101058.38
2022-12-06T13:46:08.900Z,101064.56
2022-12-06T13:48:54.906Z,101057.50
2022-12-06T13:51:42.318Z,101058.38
2022-12-06T13:54:15.393Z,101056.66
2022-12-06T13:56:42.161Z,101055.81
2022-12-06T13:59:11.260Z,101051.31
2022-12-06T14:01:46.859Z,101062.16
2022-12-06T14:09:50.056Z,101042.31
2022-12-06T14:12:20.274Z,101046.78
2022-12-06T14:15:00.220Z,101045.00
2022-12-06T14:18:12.516Z,101036.97
2022-12-06T14:20:35.781Z,101042.31
2022-12-06T14:23:02.128Z,101035.97
2022-12-06T14:25:30.291Z,101034.28
2022-12-06T14:28:11.653Z,101027.94
2022-12-06T14:30:39.121Z,101039.50
2022-12-06T14:33:22.331Z,101037.66
2022-12-06T14:35:51.930Z,101045.69
2022-12-06T14:38:50.713Z,101045.69
2022-12-06T14:41:37.811Z,101043.00
2022-12-06T14:44:13.531Z,101043.00
2022-12-06T14:46:40.775Z,101037.66
2022-12-06T14:49:31.130Z,101036.81
2022-12-06T14:51:57.637Z,101038.78
2022-12-06T14:54:42.815Z,101032.47
2022-12-06T14:57:26.343Z,101036.97
2022-12-06T15:00:20.838Z,101033.56
2022-12-06T15:03:01.628Z,101028.34
2022-12-06T15:05:43.823Z,101026.78
2022-12-06T15:08:28.587Z,101025.41
2022-12-06T15:10:59.984Z,101018.63
2022-12-06T15:13:27.396Z,101027.88
2022-12-06T15:16:09.221Z,101025.44
2022-12-06T15:18:45.932Z,101031.22
2022-12-06T15:21:17.362Z,101028.94
2022-12-06T15:23:52.027Z,101018.78
2022-12-06T15:26:19.970Z,101027.31
2022-12-06T15:28:47.029Z,101025.47
2022-12-06T15:31:18.725Z,101025.13
2022-12-06T15:33:45.515Z,101023.13
2022-12-06T15:36:23.376Z,101033.50
2022-12-06T15:38:51.187Z,101028.81
2022-12-06T15:41:21.392Z,101026.53
2022-12-06T15:43:48.728Z,101023.56
2022-12-06T15:46:21.188Z,101029.38
2022-12-06T15:48:47.575Z,101029.91
2022-12-06T15:51:20.608Z,101022.56
2022-12-06T15:53:49.421Z,101018.59
2022-12-06T15:56:18.132Z,101018.25
2022-12-06T15:58:46.613Z,101010.63
2022-12-06T16:01:15.851Z,101010.88
2022-12-06T16:03:42.233Z,101018.44
2022-12-06T16:06:16.638Z,101012.38
2022-12-06T16:08:43.786Z,101016.16
2022-12-06T16:11:12.958Z,101002.91
2022-12-06T16:13:39.920Z,101014.59
2022-12-06T16:16:06.621Z,101005.75
2022-12-06T16:18:33.084Z,101004.03
2022-12-06T16:20:59.445Z,101011.91
2022-12-06T16:24:12.459Z,101010.94
2022-12-06T16:26:39.142Z,101000.97
2022-12-06T16:29:07.318Z,101004.50
2022-12-06T16:31:38.437Z,101011.53
2022-12-06T16:34:05.460Z,100999.03
2022-12-06T16:36:32.333Z,100996.22
2022-12-06T16:39:01.998Z,101005.78
2022-12-06T16:41:34.412Z,101002.16
2022-12-06T16:44:01.391Z,101006.53
2022-12-06T16:46:33.001Z,101007.25
2022-12-06T16:49:36.778Z,100999.97
2022-12-06T16:51:51.516Z,100996.31
2022-12-06T16:54:18.150Z,100993.53
2022-12-06T16:56:45.404Z,100996.03
2022-12-06T16:59:16.217Z,100992.28
2022-12-06T17:01:50.944Z,100988.66
2022-12-06T17:04:17.746Z,100984.00
2022-12-06T17:06:47.191Z,100978.56
2022-12-06T17:09:14.254Z,100983.78
2022-12-06T17:11:59.480Z,100983.78
2022-12-06T17:14:26.154Z,100975.63
2022-12-06T17:16:53.269Z,100971.13
2022-12-06T17:19:23.122Z,100974.50
2022-12-06T17:21:51.637Z,100979.72
2022-12-06T17:24:19.256Z,100977.06
2022-12-06T17:26:45.628Z,100972.41
2022-12-06T17:29:12.358Z,100971.47
2022-12-06T17:31:38.835Z,100963.31
2022-12-06T17:34:07.430Z,100954.34
2022-12-06T17:36:34.510Z,100967.41
2022-12-06T17:39:04.509Z,100961.97
2022-12-06T17:41:52.015Z,100951.97
2022-12-06T17:44:19.058Z,100948.34
2022-12-06T17:46:45.608Z,100949.03
2022-12-06T17:49:18.179Z,100947.09
2022-12-06T17:51:44.838Z,100957.03
2022-12-06T17:54:12.069Z,100945.41
2022-12-06T17:56:41.241Z,100948.91
2022-12-06T17:59:13.961Z,100941.75
2022-12-06T18:02:12.947Z,100948.06
2022-12-06T18:04:28.376Z,100954.25
2022-12-06T18:06:55.144Z,100952.56
2022-12-06T18:09:21.480Z,100942.84
2022-12-06T18:11:48.867Z,100938.34
2022-12-06T18:14:15.793Z,100942.84
2022-12-06T18:16:45.731Z,100944.56
2022-12-06T18:19:17.481Z,100941.75
2022-12-06T18:21:44.237Z,100936.41
2022-12-06T18:24:22.647Z,100936.28
2022-12-06T18:26:49.948Z,100934.44
2022-12-06T18:29:21.523Z,100945.84
2022-12-06T18:31:48.479Z,100942.19
2022-12-06T18:34:15.403Z,100939.53
2022-12-06T18:36:41.926Z,100938.69
2022-12-06T18:39:15.098Z,100935.88
2022-12-06T18:41:45.189Z,100939.25
2022-12-06T18:44:12.872Z,100939.25
2022-12-06T18:46:42.011Z,100935.63
2022-12-06T18:49:10.759Z,100948.97
2022-12-06T18:51:38.443Z,100934.78
2022-12-06T18:54:05.305Z,100931.97
2022-12-06T18:56:33.313Z,100926.63
2022-12-06T18:59:01.248Z,100932.78
2022-12-06T19:01:38.656Z,100935.34
2022-12-06T19:04:06.604Z,100935.34
2022-12-06T19:06:37.439Z,100936.06
2022-12-06T19:09:07.988Z,100935.06
2022-12-06T19:11:38.889Z,100937.63
2022-12-06T19:14:06.176Z,100926.94
2022-12-06T19:16:38.460Z,100928.50
2022-12-06T19:19:12.691Z,100930.19
2022-12-06T19:21:43.781Z,100923.84
2022-12-06T19:24:12.136Z,100922.72
2022-12-06T19:26:38.502Z,100923.44
2022-12-06T19:29:05.714Z,100917.16
2022-12-06T19:31:32.022Z,100923.19
2022-12-06T19:33:58.419Z,100921.38
2022-12-06T19:36:29.999Z,100914.88
2022-12-06T19:38:58.926Z,100913.94
2022-12-06T19:41:25.892Z,100904.09
2022-12-06T19:44:10.938Z,100905.63
2022-12-06T19:46:38.196Z,100908.19
2022-12-06T19:49:06.520Z,100900.00
2022-12-06T19:51:40.664Z,100902.56
2022-12-06T19:54:08.069Z,100898.06
2022-12-06T19:56:35.121Z,100900.59
2022-12-06T19:59:11.224Z,100901.44
2022-12-06T20:01:45.315Z,100895.09
2022-12-06T20:04:20.041Z,100901.16
2022-12-06T20:06:46.711Z,100910.03
2022-12-06T20:09:13.964Z,100902.00
2022-12-06T20:12:00.367Z,100903.72
2022-12-06T20:14:27.680Z,100906.78
2022-12-06T20:16:54.537Z,100908.63
2022-12-06T20:19:21.405Z,100901.59
2022-12-06T20:21:48.624Z,100898.09
2022-12-06T20:24:18.828Z,100895.44
2022-12-06T20:26:47.036Z,100893.72
2022-12-06T20:29:13.375Z,100897.09
2022-12-06T20:31:40.013Z,100891.75
2022-12-06T20:34:11.632Z,100896.97
2022-12-06T20:36:41.474Z,100881.78
2022-12-06T20:39:08.032Z,100884.47
2022-12-06T20:41:34.697Z,100881.78
2022-12-06T20:44:02.075Z,100877.16
2022-12-06T20:46:31.225Z,100876.16
2022-12-06T20:49:02.592Z,100873.50
2022-12-06T20:51:30.232Z,100877.00
2022-12-06T20:53:58.810Z,100870.81
2022-12-06T20:56:29.185Z,100868.03
2022-12-06T20:58:57.459Z,100862.66
2022-12-06T21:01:26.874Z,100857.31
2022-12-06T21:03:54.801Z,100853.78
2022-12-06T21:06:23.307Z,100857.31
2022-12-06T21:08:50.304Z,100856.47
2022-12-06T21:11:23.134Z,100859.13
2022-12-06T21:13:54.946Z,100863.50
2022-12-06T21:16:26.642Z,100860.69
2022-12-06T21:18:57.856Z,100863.22
2022-12-06T21:21:27.368Z,100859.56
2022-12-06T21:23:53.791Z,100860.56
2022-12-06T21:26:20.589Z,100863.09
2022-12-06T21:28:47.022Z,100859.56
2022-12-06T21:31:13.434Z,100848.19
2022-12-06T21:33:39.884Z,100852.53
2022-12-06T21:36:07.066Z,100845.53
2022-12-06T21:38:34.214Z,100844.66
2022-12-06T21:41:09.287Z,100845.53
2022-12-06T21:43:35.773Z,100843.81
2022-12-06T21:46:07.069Z,100848.19
2022-12-06T21:48:33.877Z,100848.31
2022-12-06T21:51:06.477Z,100846.47
2022-12-06T21:53:33.924Z,100851.81
2022-12-06T21:56:05.917Z,100843.81
2022-12-06T21:58:32.274Z,100846.47
2022-12-06T22:01:04.890Z,100850.00
2022-12-06T22:03:31.282Z,100845.66
2022-12-06T22:05:57.708Z,100848.31
2022-12-06T22:08:24.089Z,100856.34
2022-12-06T22:10:52.549Z,100856.22
2022-12-06T22:13:19.369Z,100848.19
2022-12-06T22:15:46.258Z,100863.22
2022-12-06T22:18:12.610Z,100853.38
2022-12-06T22:20:38.918Z,100846.34
2022-12-06T22:23:05.258Z,100848.88
2022-12-06T22:25:31.597Z,100848.75
2022-12-06T22:27:57.906Z,100852.25
2022-12-06T22:30:24.269Z,100849.47
2022-12-06T22:32:50.628Z,100843.28
2022-12-06T22:35:17.045Z,100847.47
2022-12-06T22:37:43.492Z,100851.97
2022-12-06T22:40:10.370Z,100848.34
2022-12-06T22:42:36.685Z,100846.34
2022-12-06T22:45:03.341Z,100841.00
2022-12-06T22:47:29.679Z,100841.72
2022-12-06T22:49:56.014Z,100839.19
2022-12-06T22:52:22.325Z,100850.72
2022-12-06T22:54:48.766Z,100840.88
2022-12-06T22:57:15.100Z,100853.25
2022-12-06T22:59:41.431Z,100846.09
2022-12-06T23:02:07.825Z,100846.94
2022-12-06T23:04:34.202Z,100847.78
2022-12-06T23:07:00.525Z,100842.41
2022-12-06T23:09:27.034Z,100836.25
2022-12-06T23:11:53.428Z,100841.59
2022-12-06T23:14:19.816Z,100849.72
2022-12-06T23:16:46.480Z,100847.06
2022-12-06T23:19:12.929Z,100841.00
2022-12-06T23:21:40.719Z,100845.50
2022-12-06T23:24:09.823Z,100844.66
2022-12-06T23:26:39.235Z,100841.16
2022-12-06T23:29:06.256Z,100844.78
2022-12-06T23:31:35.644Z,100843.94
2022-12-06T23:34:07.801Z,100839.59
2022-12-06T23:36:35.536Z,100836.22
2022-12-06T23:39:02.668Z,100835.50
2022-12-06T23:41:30.992Z,100833.84
2022-12-06T23:43:58.157Z,100827.78
2022-12-06T23:46:28.285Z,100833.00
2022-12-06T23:48:55.119Z,100836.63
2022-12-06T23:51:34.648Z,100833.13
2022-12-06T23:54:02.888Z,100832.28
2022-12-06T23:56:31.870Z,100825.09
2022-12-06T23:58:59.402Z,100825.25
